Time;durP1;ratioP1;P1;durP2;ratioP2;P2;SDS_P1;SDS_P2;PMS_P1;PMS_P2;Temp;Humidity;BMP_temperature;BMP_pressure;BME280_temperature;BME280_humidity;BME280_pressure;Samples;Min_cycle;Max_cycle;Signal;HPM_P1;HPM_P2
2022/06/05 00:00:41;;;;;;;0.10;0.10;;;;;;;19.06;54.73;101862.25;5011519;28;21443;-76
2022/06/05 00:06:09;;;;;;;0.03;0.03;;;;;;;18.91;54.94;101863.72;5107815;27;20391;-74
2022/06/05 00:08:53;;;;;;;0.20;0.20;;;;;;;18.90;55.54;101865.56;5101802;28;20032;-74
2022/06/05 00:11:21;;;;;;;0.00;0.00;;;;;;;18.89;54.83;101860.19;5099967;28;20039;-75
2022/06/05 00:13:54;;;;;;;0.10;0.10;;;;;;;18.90;54.91;101870.00;5106209;28;20441;-75
2022/06/05 00:16:24;;;;;;;0.03;0.03;;;;;;;18.83;55.34;101879.22;5098297;28;20063;-75
2022/06/05 00:18:51;;;;;;;0.47;0.47;;;;;;;18.81;55.65;101875.75;5095932;28;20110;-75
2022/06/05 00:21:17;;;;;;;0.20;0.20;;;;;;;18.80;54.95;101877.53;5096133;28;20036;-75
2022/06/05 00:23:44;;;;;;;0.55;0.55;;;;;;;18.80;55.12;101872.16;5099394;28;20028;-75
2022/06/05 00:26:39;;;;;;;0.30;0.30;;;;;;;18.79;55.82;101865.06;5094614;28;20039;-75
2022/06/05 00:29:21;;;;;;;7.28;3.05;;;;;;;18.78;55.46;101859.72;5100625;28;20031;-75
2022/06/05 00:32:04;;;;;;;0.30;0.30;;;;;;;18.82;55.32;101862.25;5095304;28;20043;-74
2022/06/05 00:34:30;;;;;;;;;;;;;;;18.92;54.71;101862.81;5098712;28;20277;-74
2022/06/05 00:37:23;;;;;;;0.10;0.10;;;;;;;18.92;55.07;101835.94;5094590;28;19922;-75
2022/06/05 00:42:36;;;;;;;0.30;0.30;;;;;;;18.76;55.37;101839.19;5105306;27;20404;-75
2022/06/05 00:45:09;;;;;;;0.05;0.05;;;;;;;18.87;55.16;101832.53;5104342;28;20028;-75
2022/06/05 00:47:37;;;;;;;0.00;0.00;;;;;;;18.76;55.84;101833.81;5104850;28;20123;-75
2022/06/05 00:52:53;;;;;;;0.00;0.00;;;;;;;18.75;55.45;101834.78;5084042;27;20428;-74
2022/06/05 00:55:20;;;;;;;0.10;0.10;;;;;;;18.75;55.44;101831.19;5084696;28;20028;-74
2022/06/05 00:57:47;;;;;;;8.63;1.27;;;;;;;18.66;55.52;101824.38;5087396;28;20046;-75
2022/06/05 01:00:18;;;;;;;0.10;0.10;;;;;;;18.71;55.83;101826.88;5087983;28;20036;-75
2022/06/05 01:02:48;;;;;;;0.40;0.25;;;;;;;18.69;55.87;101835.00;5078669;28;20028;-75
2022/06/05 01:05:16;;;;;;;0.08;0.08;;;;;;;18.74;55.57;101837.50;5086324;28;20044;-75
2022/06/05 01:07:43;;;;;;;0.00;0.00;;;;;;;18.75;55.33;101829.41;5078711;28;21292;-74
2022/06/05 01:10:10;;;;;;;0.47;0.47;;;;;;;18.65;55.65;101827.97;5083093;28;20032;-75
2022/06/05 01:15:28;;;;;;;0.20;0.20;;;;;;;18.75;55.14;101810.63;5064131;28;20137;-75
2022/06/05 01:21:12;;;;;;;0.40;0.40;;;;;;;18.74;55.57;101827.66;5066794;28;20402;-74
2022/06/05 01:24:03;;;;;;;0.08;0.08;;;;;;;18.80;55.35;101828.34;5068749;28;20524;-74
2022/06/05 01:26:36;;;;;;;0.60;0.60;;;;;;;18.71;55.38;101837.63;5064469;28;20056;-74
2022/06/05 01:31:57;;;;;;;0.00;0.00;;;;;;;18.73;55.91;101831.25;5083909;27;1191164;-76
2022/06/05 01:34:33;;;;;;;0.68;0.47;;;;;;;18.74;56.08;101846.44;5093491;28;20389;-76
2022/06/05 01:39:47;;;;;;;0.15;0.15;;;;;;;18.84;55.18;101870.22;5078250;28;20410;-76
2022/06/05 01:42:22;;;;;;;0.10;0.10;;;;;;;18.83;55.17;101923.06;5068136;28;20518;-75
2022/06/05 01:44:55;;;;;;;0.43;0.43;;;;;;;18.80;55.09;101914.25;5068434;28;20486;-75
2022/06/05 01:47:27;;;;;;;0.32;0.32;;;;;;;18.83;54.97;101884.59;5062512;28;20032;-76
2022/06/05 01:49:58;;;;;;;0.20;0.20;;;;;;;18.87;55.19;101870.13;5071147;28;20035;-76
2022/06/05 01:52:33;;;;;;;0.10;0.10;;;;;;;18.97;55.27;101878.75;5072734;28;20021;-75
2022/06/05 01:55:14;;;;;;;0.10;0.10;;;;;;;19.06;54.97;101894.50;5073724;28;20024;-76
2022/06/05 01:57:41;;;;;;;0.25;0.25;;;;;;;19.06;54.37;101903.41;5067405;28;20035;-76
2022/06/05 02:03:10;;;;;;;0.03;0.03;;;;;;;19.20;54.28;101878.72;5102240;27;1198205;-75
2022/06/05 02:05:51;;;;;;;0.20;0.20;;;;;;;19.18;54.59;101885.94;5114428;28;20051;-75
2022/06/05 02:08:33;;;;;;;0.10;0.10;;;;;;;19.26;54.27;101904.44;5106085;28;20033;-74
2022/06/05 02:11:03;;;;;;;;;;;;;;;19.37;53.42;101893.28;5099103;28;20616;-75
2022/06/05 02:13:30;;;;;;;0.08;0.08;;;;;;;19.26;53.59;101874.88;5096204;28;19933;-75
2022/06/05 02:15:56;;;;;;;0.10;0.10;;;;;;;19.27;53.85;101855.16;5096416;28;20128;-75
2022/06/05 02:18:23;;;;;;;0.00;0.00;;;;;;;19.28;53.96;101859.59;5096523;28;20038;-75
2022/06/05 02:20:50;;;;;;;0.85;0.85;;;;;;;19.31;53.83;101861.28;5096561;28;20455;-74
2022/06/05 02:23:21;;;;;;;0.35;0.35;;;;;;;19.34;53.60;101842.31;5095766;28;20047;-75
2022/06/05 02:25:48;;;;;;;0.57;0.57;;;;;;;19.29;54.61;101845.22;5097559;28;20027;-75
2022/06/05 02:28:18;;;;;;;0.20;0.20;;;;;;;19.27;56.00;101836.34;5096237;28;20472;-75
2022/06/05 02:36:37;;;;;;;0.00;0.00;;;;;;;19.24;55.12;101809.63;5060263;28;20402;-75
2022/06/05 02:39:32;;;;;;;0.55;0.55;;;;;;;19.21;54.93;101801.66;5040424;28;20044;-75
2022/06/05 02:53:48;;;;;;;0.30;0.30;;;;;;;18.80;57.32;101745.97;5071381;27;20863;-77
2022/06/05 02:56:15;;;;;;;0.00;0.00;;;;;;;18.65;57.45;101735.88;4986478;28;20560;-77
2022/06/05 02:58:42;;;;;;;0.10;0.10;;;;;;;18.56;58.09;101739.78;4990821;28;20037;-77
2022/06/05 03:03:54;;;;;;;0.57;0.57;;;;;;;18.42;59.45;101729.59;4988600;28;20041;-77
2022/06/05 03:06:20;;;;;;;0.00;0.00;;;;;;;18.36;58.73;101728.00;4991518;28;20030;-77
2022/06/05 03:08:46;;;;;;;0.10;0.10;;;;;;;18.25;57.86;101716.81;4988809;28;20089;-77
2022/06/05 03:11:12;;;;;;;0.10;0.10;;;;;;;18.17;58.11;101701.03;4987455;28;20034;-77
2022/06/05 03:13:39;;;;;;;1.23;1.17;;;;;;;18.10;58.56;101708.41;4989334;28;20058;-78
2022/06/05 03:16:07;;;;;;;0.10;0.10;;;;;;;17.99;59.21;101699.03;4991779;28;20023;-77
2022/06/05 03:18:34;;;;;;;0.10;0.10;;;;;;;17.93;60.15;101706.34;4993441;28;20030;-78
2022/06/05 03:21:00;;;;;;;0.08;0.08;;;;;;;17.92;59.05;101706.41;4989141;28;20435;-77
2022/06/05 03:23:26;;;;;;;0.10;0.10;;;;;;;17.87;59.91;101700.31;4986750;28;20030;-78
2022/06/05 03:25:53;;;;;;;0.10;0.10;;;;;;;17.81;59.31;101700.56;4987536;28;20029;-77
2022/06/05 03:28:19;;;;;;;0.77;0.77;;;;;;;17.75;60.56;101699.84;4987604;28;20023;-78
2022/06/05 03:30:45;;;;;;;0.20;0.20;;;;;;;17.72;60.40;101694.63;4986697;28;20393;-77
2022/06/05 03:33:12;;;;;;;0.17;0.17;;;;;;;17.69;60.65;101685.81;4986694;28;20113;-78
2022/06/05 03:35:41;;;;;;;0.55;0.55;;;;;;;17.66;60.22;101665.38;4987792;28;20019;-76
2022/06/05 03:38:08;;;;;;;0.00;0.00;;;;;;;17.62;60.02;101663.72;4986382;28;20030;-78
2022/06/05 03:40:34;;;;;;;1.85;0.60;;;;;;;17.61;60.71;101656.63;4986022;28;20080;-78
2022/06/05 03:43:01;;;;;;;0.10;0.10;;;;;;;17.53;61.89;101656.00;4986537;28;20497;-80
2022/06/05 03:45:31;;;;;;;0.10;0.10;;;;;;;17.58;60.38;101643.31;4988602;28;20030;-76
2022/06/05 03:47:57;;;;;;;0.05;0.05;;;;;;;17.54;60.04;101647.91;4988626;28;20043;-77
2022/06/05 03:50:24;;;;;;;0.08;0.08;;;;;;;17.52;61.37;101656.94;4990462;28;20105;-77
2022/06/05 03:52:50;;;;;;;0.00;0.00;;;;;;;17.49;60.84;101678.50;4985474;28;20101;-77
2022/06/05 03:55:20;;;;;;;0.10;0.10;;;;;;;17.44;61.63;101676.84;4986758;28;20026;-80
2022/06/05 03:57:47;;;;;;;0.00;0.00;;;;;;;17.41;60.17;101685.00;4986888;28;20038;-76
2022/06/05 04:00:15;;;;;;;0.00;0.00;;;;;;;17.40;60.37;101680.56;4988017;28;20043;-78
2022/06/05 04:02:42;;;;;;;0.08;0.08;;;;;;;17.39;61.07;101668.09;4985852;28;20023;-78
2022/06/05 04:05:11;;;;;;;0.10;0.10;;;;;;;17.38;61.33;101677.06;4974039;28;20046;-77
2022/06/05 04:07:37;;;;;;;0.32;0.32;;;;;;;17.42;61.50;101670.69;4973609;28;20031;-77
2022/06/05 04:10:04;;;;;;;0.05;0.05;;;;;;;17.45;60.85;101675.06;4972416;28;20518;-77
2022/06/05 04:12:34;;;;;;;0.10;0.10;;;;;;;17.48;61.70;101693.69;4974767;28;20031;-77
2022/06/05 04:15:01;;;;;;;0.57;0.57;;;;;;;17.43;61.89;101683.16;4975278;28;20052;-77
2022/06/05 04:17:27;;;;;;;0.05;0.05;;;;;;;17.48;60.56;101676.75;4971837;28;20322;-77
2022/06/05 04:19:53;;;;;;;0.57;0.57;;;;;;;17.46;61.46;101680.34;4971634;28;20041;-77
2022/06/05 04:22:20;;;;;;;0.52;0.52;;;;;;;17.49;60.46;101673.13;4972074;28;20639;-76
2022/06/05 04:24:46;;;;;;;1.95;1.55;;;;;;;17.42;60.48;101675.13;4973414;28;20045;-77
2022/06/05 04:27:12;;;;;;;0.10;0.10;;;;;;;17.40;60.69;101672.53;4973752;28;20043;-77
2022/06/05 04:29:40;;;;;;;1.00;0.98;;;;;;;17.40;60.51;101679.69;4971932;28;20030;-78
2022/06/05 04:32:07;;;;;;;0.30;0.30;;;;;;;17.38;61.25;101671.69;4972690;28;20383;-77
2022/06/05 04:34:33;;;;;;;0.10;0.10;;;;;;;17.37;61.60;101675.31;4973134;28;20077;-77
2022/06/05 04:36:59;;;;;;;0.40;0.40;;;;;;;17.34;60.90;101663.84;4974377;28;20039;-78
2022/06/05 04:39:25;;;;;;;0.40;0.40;;;;;;;17.25;61.24;101659.69;4973123;28;20089;-79
2022/06/05 04:41:52;;;;;;;0.13;0.13;;;;;;;17.23;61.47;101662.38;4972608;28;20466;-78
2022/06/05 04:44:18;;;;;;;0.63;0.63;;;;;;;17.19;62.21;101657.22;4972848;28;20030;-77
2022/06/05 04:46:45;;;;;;;0.13;0.13;;;;;;;17.13;63.01;101645.81;4973951;28;20050;-77
2022/06/05 04:49:13;;;;;;;0.65;0.65;;;;;;;17.13;62.41;101652.94;4976615;28;20050;-78
2022/06/05 04:51:40;;;;;;;0.20;0.20;;;;;;;17.06;63.59;101644.25;4973005;28;20098;-77
2022/06/05 04:54:07;;;;;;;0.00;0.00;;;;;;;17.09;62.79;101651.31;4973561;28;20033;-78
2022/06/05 04:56:34;;;;;;;0.10;0.10;;;;;;;17.10;62.17;101645.88;4972163;28;20070;-78
2022/06/05 04:59:01;;;;;;;0.30;0.30;;;;;;;17.08;62.56;101644.19;4976433;28;20106;-77
2022/06/05 05:01:30;;;;;;;0.10;0.10;;;;;;;17.09;62.98;101645.94;4979589;28;20031;-78
2022/06/05 05:04:00;;;;;;;0.10;0.10;;;;;;;17.07;63.15;101650.47;4982353;28;20031;-78
2022/06/05 05:06:28;;;;;;;0.00;0.00;;;;;;;17.10;62.65;101656.59;4973535;28;20042;-78
2022/06/05 05:08:55;;;;;;;0.10;0.10;;;;;;;17.12;62.61;101661.91;4974924;28;20046;-77
2022/06/05 05:11:22;;;;;;;0.00;0.00;;;;;;;17.12;63.80;101649.41;4973175;28;20067;-78
2022/06/05 05:13:49;;;;;;;0.30;0.30;;;;;;;17.17;62.89;101634.97;4975262;28;20040;-78
2022/06/05 05:16:15;;;;;;;0.00;0.00;;;;;;;17.19;63.00;101635.81;4982042;28;20038;-76
2022/06/05 05:18:41;;;;;;;0.10;0.10;;;;;;;17.14;64.25;101641.31;4972890;28;20554;-78
2022/06/05 05:21:12;;;;;;;0.25;0.25;;;;;;;17.18;63.17;101642.06;4968517;28;20035;-78
2022/06/05 05:23:38;;;;;;;0.52;0.52;;;;;;;17.16;62.96;101638.56;4973859;28;20406;-77
2022/06/05 05:26:08;;;;;;;0.60;0.60;;;;;;;17.13;63.68;101629.72;4983142;28;20627;-78
2022/06/05 05:28:36;;;;;;;0.10;0.10;;;;;;;17.07;63.78;101619.25;4982744;28;20095;-77
2022/06/05 05:31:06;;;;;;;0.00;0.00;;;;;;;17.06;63.80;101609.44;4969149;28;20062;-76
2022/06/05 05:33:32;;;;;;;10.63;2.08;;;;;;;17.06;63.79;101601.41;4971827;28;20041;-78
2022/06/05 05:35:58;;;;;;;0.05;0.05;;;;;;;17.07;64.52;101603.16;4972202;28;20034;-77
2022/06/05 05:38:24;;;;;;;0.13;0.13;;;;;;;17.05;65.58;101599.66;4976472;28;20050;-77
2022/06/05 05:43:36;;;;;;;0.00;0.00;;;;;;;17.10;64.27;101613.75;4973928;28;20031;-77
2022/06/05 05:46:06;;;;;;;0.22;0.22;;;;;;;17.09;64.50;101617.34;4971966;28;20114;-77
2022/06/05 05:48:33;;;;;;;0.00;0.00;;;;;;;17.11;65.01;101626.22;4970366;28;20113;-77
2022/06/05 05:50:59;;;;;;;0.20;0.20;;;;;;;17.17;65.06;101613.53;4966062;28;20661;-76
2022/06/05 05:53:25;;;;;;;0.28;0.28;;;;;;;17.19;65.17;101622.41;4976951;28;20058;-77
2022/06/05 05:55:51;;;;;;;0.00;0.00;;;;;;;17.21;65.63;101626.78;4981989;28;20464;-76
2022/06/05 05:58:17;;;;;;;0.08;0.08;;;;;;;17.28;65.09;101622.06;4971151;28;20116;-77
2022/06/05 06:00:43;;;;;;;0.30;0.30;;;;;;;17.30;65.38;101615.72;4967451;28;20047;-77
2022/06/05 06:03:09;;;;;;;0.08;0.08;;;;;;;17.29;65.09;101623.81;4971896;28;20027;-76
2022/06/05 06:05:35;;;;;;;0.10;0.10;;;;;;;17.29;65.01;101623.81;4971346;28;20483;-76
2022/06/05 06:08:02;;;;;;;0.55;0.55;;;;;;;17.33;64.55;101614.72;4971622;28;20042;-76
2022/06/05 06:10:28;;;;;;;0.22;0.22;;;;;;;17.31;65.25;101619.28;4972078;28;20045;-77
2022/06/05 06:12:54;;;;;;;0.00;0.00;;;;;;;17.30;65.41;101610.38;4980732;28;20068;-77
2022/06/05 06:15:20;;;;;;;0.10;0.10;;;;;;;17.32;64.93;101607.66;4976915;28;20406;-77
2022/06/05 06:17:46;;;;;;;0.20;0.20;;;;;;;17.34;63.97;101611.13;4983508;28;20048;-77
2022/06/05 06:20:12;;;;;;;0.20;0.20;;;;;;;17.32;64.97;101612.13;4975992;28;20046;-76
2022/06/05 06:22:41;;;;;;;0.22;0.22;;;;;;;17.36;64.65;101606.59;4981102;28;20042;-78
2022/06/05 06:25:07;;;;;;;0.10;0.10;;;;;;;17.36;65.00;101609.28;4979843;28;20030;-78
2022/06/05 06:27:33;;;;;;;0.08;0.08;;;;;;;17.39;64.32;101614.50;4977712;28;20031;-78
2022/06/05 06:29:59;;;;;;;0.15;0.15;;;;;;;17.41;64.64;101614.47;4971628;28;20031;-78
2022/06/05 06:32:26;;;;;;;0.30;0.30;;;;;;;17.41;64.53;101606.44;4970100;28;20110;-79
2022/06/05 06:34:52;;;;;;;0.10;0.10;;;;;;;17.39;65.27;101608.28;4975370;28;20090;-78
2022/06/05 06:37:20;;;;;;;0.20;0.20;;;;;;;17.45;64.61;101605.41;4976824;28;20038;-78
2022/06/05 06:39:46;;;;;;;0.08;0.08;;;;;;;17.49;64.51;101601.66;4971214;28;20556;-78
2022/06/05 06:42:12;;;;;;;0.00;0.00;;;;;;;17.49;64.91;101593.63;4973093;28;20030;-78
2022/06/05 06:44:38;;;;;;;0.35;0.35;;;;;;;17.52;64.60;101598.00;4972330;28;20027;-77
2022/06/05 06:47:04;;;;;;;0.32;0.32;;;;;;;17.57;64.11;101596.00;4978779;28;20097;-78
2022/06/05 06:49:31;;;;;;;0.20;0.20;;;;;;;17.59;64.72;101595.03;4975994;28;20091;-78
2022/06/05 06:51:58;;;;;;;0.30;0.25;;;;;;;17.60;65.05;101590.56;4982001;28;20035;-77
2022/06/05 06:54:24;;;;;;;0.10;0.10;;;;;;;17.68;64.05;101577.72;4974981;28;20442;-78
2022/06/05 06:56:50;;;;;;;0.38;0.30;;;;;;;17.73;64.19;101586.47;4973063;28;20039;-78
2022/06/05 06:59:17;;;;;;;0.00;0.00;;;;;;;17.77;64.26;101588.09;4974420;28;20113;-77
2022/06/05 07:01:43;;;;;;;0.10;0.10;;;;;;;17.77;63.71;101566.66;4982086;28;20093;-78
2022/06/05 07:04:09;;;;;;;0.00;0.00;;;;;;;17.83;64.06;101570.03;4978197;28;20035;-78
2022/06/05 07:06:36;;;;;;;0.20;0.20;;;;;;;17.84;63.99;101563.75;4973606;28;20065;-78
2022/06/05 07:09:02;;;;;;;0.13;0.13;;;;;;;17.87;63.95;101566.28;4969156;28;20121;-78
2022/06/05 07:11:28;;;;;;;1.23;0.55;;;;;;;17.95;63.86;101569.59;4983699;28;20442;-78
2022/06/05 07:13:56;;;;;;;0.40;0.40;;;;;;;18.03;63.91;101556.75;4970792;28;20283;-78
2022/06/05 07:16:22;;;;;;;0.10;0.10;;;;;;;18.08;63.93;101556.56;4973893;28;20027;-78
2022/06/05 07:18:48;;;;;;;0.13;0.13;;;;;;;18.17;63.82;101549.94;4977814;28;20035;-77
2022/06/05 07:21:18;;;;;;;0.65;0.63;;;;;;;18.22;63.53;101540.78;4977631;28;20043;-78
2022/06/05 07:23:45;;;;;;;0.38;0.38;;;;;;;18.27;64.02;101530.75;4971522;28;20520;-78
2022/06/05 07:26:13;;;;;;;0.30;0.30;;;;;;;18.37;63.76;101523.19;4973399;28;20447;-78
2022/06/05 07:28:39;;;;;;;0.90;0.63;;;;;;;18.48;63.64;101520.06;4974581;28;20080;-78
2022/06/05 07:31:07;;;;;;;0.05;0.05;;;;;;;18.61;64.22;101504.28;4968082;28;20032;-78
2022/06/05 07:33:34;;;;;;;0.20;0.20;;;;;;;18.75;63.59;101509.94;4969669;28;20061;-78
2022/06/05 07:36:03;;;;;;;0.40;0.40;;;;;;;18.88;63.21;101501.34;4973801;28;20030;-78
2022/06/05 07:38:30;;;;;;;0.20;0.20;;;;;;;18.97;63.06;101500.97;4974070;28;20050;-78
2022/06/05 07:40:57;;;;;;;0.10;0.10;;;;;;;19.07;62.42;101502.28;4975095;28;20089;-77
2022/06/05 07:43:23;;;;;;;0.68;0.68;;;;;;;19.19;62.97;101506.25;4974294;28;20523;-78
2022/06/05 07:45:49;;;;;;;0.57;0.57;;;;;;;19.36;62.65;101497.38;4979033;28;20038;-77
2022/06/05 07:48:18;;;;;;;0.10;0.10;;;;;;;19.50;63.03;101493.19;4982535;28;20045;-78
2022/06/05 07:56:17;;;;;;;0.43;0.43;;;;;;;19.97;61.22;101459.59;4975571;28;20039;-78
2022/06/05 07:58:43;;;;;;;1.00;0.60;;;;;;;20.09;60.84;101467.06;4974513;28;20494;-78
2022/06/05 08:01:10;;;;;;;0.20;0.20;;;;;;;20.23;60.43;101455.59;4973377;28;20035;-78
2022/06/05 08:03:36;;;;;;;0.93;0.93;;;;;;;20.31;60.33;101453.38;4973588;28;20037;-78
2022/06/05 08:06:03;;;;;;;0.75;0.75;;;;;;;20.45;59.52;101446.41;4975008;28;20542;-79
2022/06/05 08:08:29;;;;;;;0.22;0.22;;;;;;;20.57;58.60;101436.81;4974687;28;20035;-78
2022/06/05 08:11:03;;;;;;;0.10;0.10;;;;;;;20.80;60.03;101432.94;4973554;28;20041;-78
2022/06/05 08:13:29;;;;;;;0.20;0.20;;;;;;;20.90;59.39;101434.19;4975760;28;20043;-77
2022/06/05 08:15:55;;;;;;;0.10;0.10;;;;;;;21.01;59.34;101425.53;4985273;28;20033;-78
2022/06/05 08:18:21;;;;;;;0.30;0.30;;;;;;;21.13;57.17;101418.56;4977572;28;20089;-78
2022/06/05 08:20:49;;;;;;;0.15;0.15;;;;;;;21.33;57.77;101436.31;4976629;28;20572;-79
2022/06/05 08:23:15;;;;;;;3.90;0.93;;;;;;;21.47;58.50;101428.34;4974609;28;20430;-78
2022/06/05 08:25:42;;;;;;;0.10;0.10;;;;;;;21.58;57.40;101433.16;4974815;28;20065;-77
2022/06/05 08:28:08;;;;;;;0.05;0.05;;;;;;;21.77;57.99;101421.28;4977733;28;20027;-78
2022/06/05 08:30:37;;;;;;;0.55;0.55;;;;;;;21.98;57.81;101425.44;4976479;28;20039;-78
2022/06/05 08:33:04;;;;;;;0.35;0.35;;;;;;;22.18;57.31;101417.13;4976424;28;20035;-81
2022/06/05 08:35:31;;;;;;;0.10;0.10;;;;;;;22.38;57.22;101421.34;4978829;28;20522;-81
2022/06/05 08:46:31;;;;;;;0.45;0.45;;;;;;;23.07;56.40;101411.63;5009179;28;20417;-76
2022/06/05 08:49:02;;;;;;;0.40;0.40;;;;;;;23.18;55.10;101419.09;5008472;28;20391;-76
2022/06/05 08:54:13;;;;;;;0.50;0.50;;;;;;;23.51;55.05;101415.16;5128596;22;20142;-77
2022/06/05 08:56:44;;;;;;;0.13;0.13;;;;;;;23.75;54.64;101407.25;5103770;28;20038;-77
2022/06/05 09:02:08;;;;;;;0.68;0.68;;;;;;;24.06;53.87;101412.47;5107444;27;20386;-77
2022/06/05 09:07:16;;;;;;;0.30;0.30;;;;;;;24.21;51.96;101403.31;5021977;28;20144;-75
2022/06/05 09:09:48;;;;;;;0.20;0.20;;;;;;;24.31;52.31;101405.34;5003539;28;20041;-76
2022/06/05 09:15:00;;;;;;;0.35;0.35;;;;;;;24.56;51.76;101404.50;5061533;27;20395;-75
2022/06/05 09:17:27;;;;;;;1.17;0.55;;;;;;;24.62;52.05;101400.50;5057772;27;20032;-75
2022/06/05 09:19:56;;;;;;;0.17;0.17;;;;;;;24.68;51.04;101405.53;5061284;28;20037;-75
2022/06/05 09:22:40;;;;;;;0.30;0.30;;;;;;;24.86;51.97;101401.50;5060474;28;20028;-76
2022/06/05 09:31:12;;;;;;;0.20;0.20;;;;;;;25.18;52.29;101397.44;5064328;28;20385;-77
2022/06/05 09:33:41;;;;;;;0.40;0.40;;;;;;;25.21;51.56;101397.22;5051983;28;20036;-76
2022/06/05 09:36:13;;;;;;;0.20;0.20;;;;;;;25.23;50.18;101413.38;5059419;28;20051;-77
2022/06/05 09:38:46;;;;;;;0.40;0.40;;;;;;;25.26;51.46;101411.28;5046413;28;20063;-77
2022/06/05 09:47:17;;;;;;;0.40;0.40;;;;;;;25.38;51.17;101414.13;5102082;27;20382;-76
2022/06/05 09:49:51;;;;;;;0.30;0.30;;;;;;;25.35;50.78;101420.59;5105682;28;20047;-78
2022/06/05 09:52:25;;;;;;;0.30;0.30;;;;;;;25.40;49.15;101429.28;5111591;28;20039;-77
2022/06/05 09:55:14;;;;;;;1.88;0.93;;;;;;;25.55;49.38;101426.44;5119052;28;20047;-78
2022/06/05 10:03:20;;;;;;;0.68;0.68;;;;;;;25.57;47.99;101403.63;5036759;27;20358;-77
2022/06/05 10:06:26;;;;;;;0.10;0.10;;;;;;;25.68;48.19;101410.94;5048087;27;20042;-76
2022/06/05 10:09:17;;;;;;;0.63;0.63;;;;;;;25.63;50.04;101405.00;5043021;27;20112;-76
2022/06/05 10:17:34;;;;;;;0.20;0.20;;;;;;;25.68;49.68;101397.38;5091603;27;20344;-77
2022/06/05 10:22:55;;;;;;;0.10;0.10;;;;;;;25.77;50.00;101393.97;5088386;27;1261132;-77
2022/06/05 10:25:46;;;;;;;0.57;0.57;;;;;;;25.88;49.47;101389.56;5104017;28;20028;-76
2022/06/05 10:28:31;;;;;;;0.17;0.17;;;;;;;25.96;50.50;101388.00;5092758;28;20532;-76
2022/06/05 10:36:22;;;;;;;0.40;0.40;;;;;;;25.94;47.60;101375.53;5085046;27;20420;-75
2022/06/05 10:39:06;;;;;;;0.10;0.10;;;;;;;25.96;48.46;101371.72;5061577;28;20024;-75
2022/06/05 10:41:39;;;;;;;0.10;0.10;;;;;;;25.97;48.73;101370.75;5060471;28;20437;-75
2022/06/05 10:47:13;;;;;;;0.30;0.30;;;;;;;26.12;49.35;101371.44;5087698;28;20393;-75
2022/06/05 10:50:10;;;;;;;0.20;0.20;;;;;;;26.21;48.87;101358.97;5076865;28;20032;-75
2022/06/05 11:04:29;;;;;;;0.52;0.52;;;;;;;26.28;48.81;101368.38;5073318;28;20361;-77
2022/06/05 11:07:13;;;;;;;0.52;0.52;;;;;;;26.30;49.16;101360.09;5051062;28;20124;-77
2022/06/05 11:15:18;;;;;;;0.15;0.15;;;;;;;26.12;48.34;101348.81;5090250;27;20395;-76
2022/06/05 11:20:29;;;;;;;0.10;0.10;;;;;;;25.75;48.35;101348.94;5108360;27;20723;-76
2022/06/05 11:23:02;;;;;;;0.30;0.30;;;;;;;25.62;49.78;101340.84;5101485;28;20028;-76
2022/06/05 11:25:33;;;;;;;0.13;0.13;;;;;;;25.52;50.06;101341.56;5106845;28;20036;-76
2022/06/05 11:33:51;;;;;;;0.10;0.10;;;;;;;25.33;49.96;101342.06;5071054;28;20860;-76
2022/06/05 11:36:26;;;;;;;0.30;0.30;;;;;;;25.17;49.77;101347.75;5046622;28;20055;-76
2022/06/05 11:39:32;;;;;;;0.13;0.13;;;;;;;25.06;49.69;101346.81;5046755;28;20457;-76
2022/06/05 11:55:32;;;;;;;0.50;0.50;;;;;;;24.10;53.68;101346.34;5067874;27;20427;-77
2022/06/05 11:58:09;;;;;;;0.40;0.40;;;;;;;23.92;53.85;101342.19;5065908;28;20091;-76
2022/06/05 12:00:44;;;;;;;0.55;0.55;;;;;;;23.77;53.62;101342.22;5068770;28;20025;-76
2022/06/05 12:03:17;;;;;;;0.63;0.63;;;;;;;23.65;54.35;101341.22;5070090;28;20536;-77
2022/06/05 12:06:09;;;;;;;0.28;0.28;;;;;;;23.57;55.03;101341.72;5068092;28;20049;-77
2022/06/05 12:08:40;;;;;;;1.27;0.70;;;;;;;23.40;54.74;101342.88;5068171;28;20029;-77
2022/06/05 12:11:14;;;;;;;0.10;0.10;;;;;;;23.35;55.41;101333.31;5068449;28;20029;-76
2022/06/05 12:16:46;;;;;;;0.10;0.10;;;;;;;23.18;56.19;101329.00;5099273;27;20474;-75
2022/06/05 12:22:21;;;;;;;0.10;0.10;;;;;;;23.13;59.17;101333.81;5081164;27;20408;-75
2022/06/05 12:25:13;;;;;;;0.50;0.50;;;;;;;23.08;58.23;101331.44;5063945;28;20117;-76
2022/06/05 12:30:27;;;;;;;0.20;0.20;;;;;;;23.02;58.68;101334.53;5113180;27;20366;-77
2022/06/05 12:33:02;;;;;;;0.38;0.38;;;;;;;22.98;58.36;101324.88;5111101;28;20044;-77
2022/06/05 12:35:35;;;;;;;0.03;0.03;;;;;;;22.91;59.95;101325.28;5099536;28;20052;-79
2022/06/05 12:41:21;;;;;;;0.20;0.20;;;;;;;22.84;58.70;101323.06;5091065;27;20527;-76
2022/06/05 12:44:24;;;;;;;0.25;0.25;;;;;;;22.77;59.56;101322.63;5068919;28;20032;-76
2022/06/05 12:47:16;;;;;;;0.00;0.00;;;;;;;22.67;60.21;101324.13;5069102;28;20029;-74
2022/06/05 12:53:00;;;;;;;0.20;0.20;;;;;;;22.27;60.31;101331.06;5086436;28;20344;-74
2022/06/05 12:55:40;;;;;;;1.65;1.55;;;;;;;22.11;61.61;101341.06;5080637;28;20051;-74
2022/06/05 13:03:29;;;;;;;0.10;0.10;;;;;;;21.92;60.93;101334.09;5099901;27;20090;-74
2022/06/05 13:11:40;;;;;;;0.10;0.10;;;;;;;21.92;61.24;101330.50;5068921;28;20208;-75
2022/06/05 13:20:02;;;;;;;10.77;1.75;;;;;;;21.89;62.68;101320.75;5064710;27;20395;-74
2022/06/05 13:22:54;;;;;;;1.02;1.02;;;;;;;22.01;62.44;101312.88;5063899;28;20442;-75
2022/06/05 13:25:29;;;;;;;;;;;;;;;22.10;62.18;101317.72;5061340;27;20028;-75
2022/06/05 13:28:17;;;;;;;0.10;0.10;;;;;;;22.02;63.78;101315.50;5070171;27;19916;-75
2022/06/05 13:33:43;;;;;;;0.75;0.75;;;;;;;22.01;62.54;101313.78;5096368;27;20752;-78
2022/06/05 13:36:26;;;;;;;0.22;0.22;;;;;;;21.99;63.54;101304.88;5096158;28;20048;-78
2022/06/05 13:39:06;;;;;;;0.10;0.10;;;;;;;21.93;62.76;101305.25;5092919;28;20055;-78
2022/06/05 13:44:24;;;;;;;0.20;0.20;;;;;;;21.89;62.79;101293.78;5115677;27;20369;-77
2022/06/05 13:49:44;;;;;;;0.52;0.52;;;;;;;21.90;64.21;101298.22;5120161;27;20402;-76
2022/06/05 13:52:36;;;;;;;0.38;0.38;;;;;;;21.91;64.13;101283.78;5118809;27;20119;-75
2022/06/05 14:03:08;;;;;;;0.80;0.32;;;;;;;21.49;63.76;101270.03;5067701;28;20399;-77
2022/06/05 14:05:46;;;;;;;0.65;0.65;;;;;;;21.40;63.43;101275.13;5070239;28;20070;-76
2022/06/05 14:08:26;;;;;;;0.20;0.20;;;;;;;21.34;64.51;101282.59;5074370;28;20025;-78
2022/06/05 14:10:58;;;;;;;0.32;0.15;;;;;;;21.22;64.27;101285.16;5072418;28;20088;-77
2022/06/05 14:13:25;;;;;;;2.65;1.45;;;;;;;21.13;65.30;101294.63;5073071;28;20028;-76
2022/06/05 14:18:55;;;;;;;0.30;0.30;;;;;;;21.04;65.16;101298.72;5080281;27;1216316;-74
2022/06/05 14:24:02;;;;;;;0.20;0.20;;;;;;;20.83;65.08;101307.06;5036685;27;1881032;-76
2022/06/05 14:26:40;;;;;;;0.57;0.57;;;;;;;20.85;66.31;101309.69;5105178;28;20397;-76
2022/06/05 14:29:13;;;;;;;1.65;0.85;;;;;;;20.78;65.51;101308.28;5085431;28;20658;-75
2022/06/05 14:31:40;;;;;;;1.42;0.90;;;;;;;20.75;66.84;101309.31;5088283;28;20024;-75
2022/06/05 14:34:06;;;;;;;1.55;0.82;;;;;;;20.75;66.62;101306.63;5083707;28;20081;-76
2022/06/05 14:36:41;;;;;;;0.30;0.30;;;;;;;20.80;66.30;101304.53;5087167;28;20400;-75
2022/06/05 14:39:30;;;;;;;1.58;0.85;;;;;;;20.71;66.64;101309.53;5085720;28;20016;-75
2022/06/05 14:42:13;;;;;;;0.85;0.85;;;;;;;20.58;67.21;101303.97;5078993;28;20379;-78
2022/06/05 14:44:48;;;;;;;0.45;0.45;;;;;;;20.53;67.35;101312.28;5087593;28;20020;-76
2022/06/05 14:47:41;;;;;;;3.20;0.90;;;;;;;20.42;67.87;101310.16;5078048;28;20100;-76
2022/06/05 14:50:16;;;;;;;1.25;1.20;;;;;;;20.39;68.08;101306.78;5086485;28;20035;-75
2022/06/05 14:52:54;;;;;;;2.20;1.45;;;;;;;20.32;67.97;101308.94;5085330;28;20021;-77
2022/06/05 14:58:50;;;;;;;0.38;0.38;;;;;;;20.27;68.17;101317.25;5086256;28;20135;-76
2022/06/05 15:04:24;;;;;;;0.20;0.20;;;;;;;20.16;68.48;101311.56;5087837;27;20408;-75
2022/06/05 15:06:57;;;;;;;0.15;0.15;;;;;;;20.08;68.33;101306.59;5086481;28;20032;-74
2022/06/05 15:09:31;;;;;;;1.10;1.10;;;;;;;19.99;69.77;101318.72;5084038;28;20124;-76